Time;durP1;ratioP1;P1;durP2;ratioP2;P2;SDS_P1;SDS_P2;PMS_P1;PMS_P2;Temp;Humidity;BMP_temperature;BMP_pressure;BME280_temperature;BME280_humidity;BME280_pressure;Samples;Min_cycle;Max_cycle;Signal;HPM_P1;HPM_P2
2022/10/30 00:01:29;;;;;;;;;;;;;;;15.00;76.27;101211.38;5304547;32;34290;-71
2022/10/30 00:04:31;;;;;;;;;;;;;;;15.47;75.32;101205.72;5310592;33;35336;-73
2022/10/30 00:07:33;;;;;;;;;;;;;;;16.04;71.67;101203.91;5318438;32;35312;-73
2022/10/30 00:10:34;;;;;;;;;;;;;;;15.39;74.91;101208.72;5303853;32;34321;-72
2022/10/30 00:13:36;;;;;;;;;;;;;;;15.77;73.15;101199.94;5322166;32;34232;-72
2022/10/30 00:16:38;;;;;;;;;;;;;;;15.82;72.93;101195.28;5304721;32;35103;-72
2022/10/30 00:19:40;;;;;;;;;;;;;;;15.22;76.43;101197.19;5321966;32;44339;-73
2022/10/30 00:22:42;;;;;;;;;;;;;;;15.47;74.82;101205.72;5303418;32;34984;-63
2022/10/30 00:25:43;;;;;;;;;;;;;;;14.71;77.57;101209.16;5292664;32;34928;-64
2022/10/30 00:28:49;;;;;;;;;;;;;;;15.58;74.23;101194.59;5314885;32;35209;-63
2022/10/30 00:31:51;;;;;;;;;;;;;;;15.85;73.06;101192.50;5302499;32;34703;-70
2022/10/30 00:34:53;;;;;;;;;;;;;;;15.93;72.79;101203.56;5321004;32;35265;-64
2022/10/30 00:37:55;;;;;;;;;;;;;;;14.68;77.62;101210.13;5299659;33;35366;-64
2022/10/30 00:40:57;;;;;;;;;;;;;;;15.83;73.31;101196.97;5319902;32;34179;-73
2022/10/30 00:43:59;;;;;;;;;;;;;;;16.17;71.46;101182.97;5307294;33;35208;-64
2022/10/30 00:47:05;;;;;;;;;;;;;;;15.93;72.14;101183.22;5305725;32;34450;-70
2022/10/30 00:50:06;;;;;;;;;;;;;;;15.05;75.82;101184.69;5321484;32;34277;-73
2022/10/30 00:53:12;;;;;;;;;;;;;;;15.79;73.18;101190.13;5302149;32;35274;-64
2022/10/30 00:56:15;;;;;;;;;;;;;;;14.93;76.17;101190.53;5332922;32;44790;-65
2022/10/30 00:59:18;;;;;;;;;;;;;;;14.66;78.14;101195.25;5303206;33;35077;-74
2022/10/30 01:02:20;;;;;;;;;;;;;;;14.65;78.39;101196.19;5316143;32;35712;-72
2022/10/30 01:05:22;;;;;;;;;;;;;;;14.33;79.77;101193.94;5309820;33;35857;-64
2022/10/30 01:08:24;;;;;;;;;;;;;;;15.26;75.73;101175.75;5302854;32;35243;-65
2022/10/30 01:11:26;;;;;;;;;;;;;;;15.67;73.04;101170.38;5332594;32;34239;-72
2022/10/30 01:14:28;;;;;;;;;;;;;;;14.94;75.86;101169.31;5303857;32;34235;-63
2022/10/30 01:17:40;;;;;;;;;;;;;;;14.54;79.74;101171.03;5320800;32;34308;-63
2022/10/30 01:20:57;;;;;;;;;;;;;;;15.46;75.36;101153.69;5290303;32;47128;-63
2022/10/30 01:24:02;;;;;;;;;;;;;;;15.89;71.90;101156.94;5305539;33;34465;-63
2022/10/30 01:27:23;;;;;;;;;;;;;;;14.16;79.26;101161.19;5295882;32;35136;-63
2022/10/30 01:30:24;;;;;;;;;;;;;;;15.22;76.59;101152.16;5303657;33;35230;-74
2022/10/30 01:33:45;;;;;;;;;;;;;;;15.20;76.47;101146.06;5320347;32;34657;-66
2022/10/30 01:36:58;;;;;;;;;;;;;;;15.45;74.36;101141.34;5301652;32;48279;-64
2022/10/30 01:40:20;;;;;;;;;;;;;;;14.86;76.67;101144.97;5300169;33;34168;-63
2022/10/30 01:43:21;;;;;;;;;;;;;;;15.91;72.42;101139.19;5321159;32;35754;-63
2022/10/30 01:46:39;;;;;;;;;;;;;;;15.46;73.79;101145.72;5303565;33;34404;-70
2022/10/30 01:50:07;;;;;;;;;;;;;;;15.32;74.13;101145.50;5321885;32;47687;-72
2022/10/30 01:53:24;;;;;;;;;;;;;;;14.77;76.37;101155.97;5305171;32;44698;-65
2022/10/30 01:56:35;;;;;;;;;;;;;;;15.48;74.56;101154.44;5314539;32;35380;-70
2022/10/30 01:59:42;;;;;;;;;;;;;;;14.51;79.27;101171.19;5322208;32;37127;-72
2022/10/30 02:02:44;;;;;;;;;;;;;;;15.14;75.14;101163.13;5303536;33;46232;-73
2022/10/30 02:05:49;;;;;;;;;;;;;;;14.94;75.71;101158.72;5317964;33;35538;-73
2022/10/30 02:08:54;;;;;;;;;;;;;;;14.89;75.57;101166.88;5304890;32;34961;-64
2022/10/30 02:11:55;;;;;;;;;;;;;;;14.81;76.38;101157.53;5302378;33;34852;-64
2022/10/30 02:14:58;;;;;;;;;;;;;;;15.21;73.54;101148.66;5320843;33;35966;-73
2022/10/30 02:17:59;;;;;;;;;;;;;;;15.50;72.94;101151.72;5300363;33;35027;-64
2022/10/30 02:21:02;;;;;;;;;;;;;;;15.65;70.62;101145.75;5318645;33;34626;-73
2022/10/30 02:24:04;;;;;;;;;;;;;;;15.59;71.85;101154.81;5303603;32;34315;-73
2022/10/30 02:27:06;;;;;;;;;;;;;;;15.80;70.69;101154.75;5293306;33;35667;-73
2022/10/30 02:30:08;;;;;;;;;;;;;;;14.97;74.20;101157.72;5307988;33;34960;-73
2022/10/30 02:33:10;;;;;;;;;;;;;;;14.43;77.44;101160.06;5300221;33;47943;-63
2022/10/30 02:36:14;;;;;;;;;;;;;;;15.11;75.25;101145.56;5318548;33;35148;-63
2022/10/30 02:39:16;;;;;;;;;;;;;;;15.22;73.17;101131.84;5300295;33;35552;-63
2022/10/30 02:42:18;;;;;;;;;;;;;;;14.35;78.12;101133.91;5318500;32;35062;-71
2022/10/30 02:45:20;;;;;;;;;;;;;;;14.57;77.38;101136.53;5303259;33;35548;-64
2022/10/30 02:48:22;;;;;;;;;;;;;;;14.23;78.23;101144.16;5314008;32;35226;-72
2022/10/30 02:51:24;;;;;;;;;;;;;;;14.70;76.29;101143.94;5306104;33;34728;-64
2022/10/30 02:54:25;;;;;;;;;;;;;;;14.32;78.31;101146.41;5303597;33;35020;-70
2022/10/30 02:57:27;;;;;;;;;;;;;;;13.88;80.80;101154.41;5319807;32;35008;-69
2022/10/30 03:00:29;;;;;;;;;;;;;;;15.05;75.48;101152.94;5303351;32;34295;-63
2022/10/30 03:03:31;;;;;;;;;;;;;;;14.72;76.58;101150.00;5318416;32;34129;-72
2022/10/30 03:06:33;;;;;;;;;;;;;;;14.77;75.69;101155.97;5304066;32;34336;-64
2022/10/30 03:09:34;;;;;;;;;;;;;;;14.46;75.46;101157.28;5318436;32;35041;-73
2022/10/30 03:12:36;;;;;;;;;;;;;;;14.51;77.34;101162.41;5307247;32;35024;-63
2022/10/30 03:15:38;;;;;;;;;;;;;;;14.58;77.31;101153.25;5305604;33;34916;-63
2022/10/30 03:18:40;;;;;;;;;;;;;;;15.18;73.87;101139.06;5323023;32;44500;-72
2022/10/30 03:21:42;;;;;;;;;;;;;;;15.13;73.46;101156.97;5305617;32;35135;-63
2022/10/30 03:24:44;;;;;;;;;;;;;;;14.59;75.77;101158.47;5313124;33;34910;-72
2022/10/30 03:27:45;;;;;;;;;;;;;;;14.89;74.98;101158.06;5292828;32;35321;-63
2022/10/30 03:30:48;;;;;;;;;;;;;;;15.09;73.63;101150.06;5317607;32;35542;-64
2022/10/30 03:33:49;;;;;;;;;;;;;;;13.94;79.26;101155.94;5308917;32;35751;-73
2022/10/30 03:36:52;;;;;;;;;;;;;;;15.03;74.44;101153.00;5299959;32;35139;-71
2022/10/30 03:39:53;;;;;;;;;;;;;;;15.00;73.82;101149.63;5320502;32;35507;-70
2022/10/30 03:42:55;;;;;;;;;;;;;;;14.75;74.93;101148.09;5303351;32;34861;-64
2022/10/30 03:45:58;;;;;;;;;;;;;;;14.98;75.14;101148.84;5321489;32;35254;-72
2022/10/30 03:48:59;;;;;;;;;;;;;;;14.50;75.56;101150.97;5305823;32;34686;-64
2022/10/30 03:52:01;;;;;;;;;;;;;;;14.47;77.69;101140.50;5315228;33;34078;-72
2022/10/30 03:55:03;;;;;;;;;;;;;;;14.84;76.13;101139.75;5311460;32;35011;-73
2022/10/30 03:58:05;;;;;;;;;;;;;;;13.64;79.60;101145.66;5303725;33;34266;-65
2022/10/30 04:01:08;;;;;;;;;;;;;;;14.23;79.00;101144.16;5322517;33;35151;-73
2022/10/30 04:04:10;;;;;;;;;;;;;;;14.88;75.35;101132.53;5302931;32;44800;-64
2022/10/30 04:07:12;;;;;;;;;;;;;;;13.96;79.71;101151.44;5318794;32;35239;-64
2022/10/30 04:10:14;;;;;;;;;;;;;;;13.34;82.96;101142.47;5291618;32;34496;-73
2022/10/30 04:13:24;;;;;;;;;;;;;;;13.70;82.36;101141.94;5310903;32;34776;-63
2022/10/30 04:16:26;;;;;;;;;;;;;;;14.12;79.11;101139.31;5326849;32;34752;-70
2022/10/30 04:19:27;;;;;;;;;;;;;;;14.26;78.30;101141.38;5304529;32;36222;-72
2022/10/30 04:22:29;;;;;;;;;;;;;;;14.69;75.78;101127.19;5320197;32;35052;-64
2022/10/30 04:25:32;;;;;;;;;;;;;;;14.24;78.16;101137.97;5289646;32;34231;-64
2022/10/30 04:28:34;;;;;;;;;;;;;;;14.12;79.27;101138.47;5313328;33;34567;-64
2022/10/30 04:31:36;;;;;;;;;;;;;;;13.56;83.01;101142.47;5303637;32;34369;-64
2022/10/30 04:34:38;;;;;;;;;;;;;;;14.08;80.30;101141.22;5307156;32;37946;-64
2022/10/30 04:37:40;;;;;;;;;;;;;;;14.01;79.93;101131.84;5311051;32;43102;-64
2022/10/30 04:40:42;;;;;;;;;;;;;;;13.54;81.91;101144.34;5301951;32;35334;-73
2022/10/30 04:43:44;;;;;;;;;;;;;;;14.02;80.12;101130.91;5320823;32;34448;-74
2022/10/30 04:46:46;;;;;;;;;;;;;;;14.05;78.91;101138.72;5315812;32;34486;-74
2022/10/30 04:49:47;;;;;;;;;;;;;;;13.91;79.70;101151.66;5320842;33;36451;-73
2022/10/30 04:52:57;;;;;;;;;;;;;;;13.60;80.51;101149.37;5305094;32;34937;-64
2022/10/30 04:55:58;;;;;;;;;;;;;;;13.91;80.13;101149.00;5306792;33;35313;-64
2022/10/30 04:59:00;;;;;;;;;;;;;;;14.04;78.63;101144.94;5318840;32;36402;-64
2022/10/30 05:02:02;;;;;;;;;;;;;;;14.43;76.55;101152.13;5302936;33;34166;-74
2022/10/30 05:05:04;;;;;;;;;;;;;;;14.79;75.06;101133.78;5321315;32;34306;-64
2022/10/30 05:08:07;;;;;;;;;;;;;;;14.33;77.09;101140.19;5305915;32;34125;-64
2022/10/30 05:11:08;;;;;;;;;;;;;;;14.56;74.95;101137.47;5313970;32;34800;-64
2022/10/30 05:14:10;;;;;;;;;;;;;;;14.65;74.02;101135.34;5306665;33;44670;-74
2022/10/30 05:17:12;;;;;;;;;;;;;;;14.86;73.75;101140.50;5307555;32;35400;-73
2022/10/30 05:20:14;;;;;;;;;;;;;;;14.12;76.87;101155.19;5319334;32;35382;-63
2022/10/30 05:23:19;;;;;;;;;;;;;;;14.59;75.84;101163.78;5303269;32;35584;-65
2022/10/30 05:26:21;;;;;;;;;;;;;;;14.39;76.49;101168.16;5297544;33;34996;-74
2022/10/30 05:29:24;;;;;;;;;;;;;;;14.17;78.10;101162.91;5306304;32;36751;-65
2022/10/30 05:32:26;;;;;;;;;;;;;;;13.80;77.95;101167.06;5315456;32;34359;-65
2022/10/30 05:35:28;;;;;;;;;;;;;;;13.64;79.07;101156.25;5305687;32;35448;-65
2022/10/30 05:38:30;;;;;;;;;;;;;;;14.00;78.20;101163.63;5299503;32;34278;-74
2022/10/30 05:41:32;;;;;;;;;;;;;;;14.01;78.64;101170.62;5320061;32;35190;-74
2022/10/30 05:44:34;;;;;;;;;;;;;;;13.78;79.68;101171.53;5303842;32;34222;-72
2022/10/30 05:47:56;;;;;;;;;;;;;;;13.96;77.97;101170.81;5317245;32;34771;-64
2022/10/30 05:50:59;;;;;;;;;;;;;;;14.90;74.43;101168.56;5304928;32;34356;-64
2022/10/30 05:54:01;;;;;;;;;;;;;;;15.15;72.85;101172.78;5313757;33;34657;-64
2022/10/30 05:57:02;;;;;;;;;;;;;;;14.44;75.95;101171.50;5311012;32;35055;-64
2022/10/30 06:00:05;;;;;;;;;;;;;;;14.91;74.80;101164.12;5304220;32;34215;-64
2022/10/30 06:03:08;;;;;;;;;;;;;;;14.95;73.92;101164.88;5319454;33;34371;-73
2022/10/30 06:06:10;;;;;;;;;;;;;;;14.81;73.96;101169.00;5299568;33;44966;-63
2022/10/30 06:09:12;;;;;;;;;;;;;;;14.57;74.78;101176.22;5320173;33;35064;-64
2022/10/30 06:12:14;;;;;;;;;;;;;;;14.43;76.72;101159.19;5304487;32;36872;-73
2022/10/30 06:15:16;;;;;;;;;;;;;;;14.65;75.64;101167.94;5310555;33;34453;-70
2022/10/30 06:18:17;;;;;;;;;;;;;;;15.59;71.46;101157.47;5311697;32;35402;-65
2022/10/30 06:21:19;;;;;;;;;;;;;;;15.07;73.27;101164.28;5302924;32;34764;-72
2022/10/30 06:24:21;;;;;;;;;;;;;;;15.69;70.75;101160.53;5320419;32;35331;-70
2022/10/30 06:27:23;;;;;;;;;;;;;;;15.70;70.53;101163.13;5282999;33;35504;-64
2022/10/30 06:30:25;;;;;;;;;;;;;;;15.79;70.10;101159.19;5319703;33;34952;-73
2022/10/30 06:33:27;;;;;;;;;;;;;;;15.07;72.08;101162.53;5303231;32;34578;-64
2022/10/30 06:36:29;;;;;;;;;;;;;;;13.93;78.15;101180.66;5306572;33;34178;-73
2022/10/30 06:39:31;;;;;;;;;;;;;;;13.83;78.07;101183.66;5311896;33;36171;-65
2022/10/30 06:42:32;;;;;;;;;;;;;;;14.39;77.25;101186.69;5302849;32;34806;-73
2022/10/30 06:45:34;;;;;;;;;;;;;;;15.56;70.85;101188.53;5322268;33;34042;-64
2022/10/30 06:48:36;;;;;;;;;;;;;;;14.91;72.35;101190.59;5307239;33;36521;-74
2022/10/30 06:51:38;;;;;;;;;;;;;;;15.01;73.48;101191.06;5318999;33;34722;-64
2022/10/30 06:54:40;;;;;;;;;;;;;;;15.69;70.53;101187.03;5308672;32;44746;-74
2022/10/30 06:57:41;;;;;;;;;;;;;;;14.92;72.61;101189.69;5312330;32;34585;-73
2022/10/30 07:00:43;;;;;;;;;;;;;;;14.94;74.52;101190.50;5314251;32;34522;-63
2022/10/30 07:03:45;;;;;;;;;;;;;;;14.89;74.46;101189.81;5304137;32;34790;-74
2022/10/30 07:06:47;;;;;;;;;;;;;;;14.99;73.74;101191.12;5320660;32;35452;-64
2022/10/30 07:09:49;;;;;;;;;;;;;;;14.67;76.60;101195.19;5305627;32;34281;-63
2022/10/30 07:12:51;;;;;;;;;;;;;;;14.49;77.17;101191.56;5318784;32;35374;-64
2022/10/30 07:15:53;;;;;;;;;;;;;;;15.20;74.15;101178.72;5305937;32;35553;-64
2022/10/30 07:18:55;;;;;;;;;;;;;;;15.37;73.05;101177.94;5311881;32;34691;-73
2022/10/30 07:22:02;;;;;;;;;;;;;;;15.15;73.42;101172.78;5315521;32;34469;-64
2022/10/30 07:25:04;;;;;;;;;;;;;;;14.87;73.91;101178.44;5292389;32;34842;-74
2022/10/30 07:28:06;;;;;;;;;;;;;;;15.11;74.58;101187.91;5309532;32;35268;-73
2022/10/30 07:31:08;;;;;;;;;;;;;;;15.28;74.01;101179.22;5304671;32;34560;-65
2022/10/30 07:34:10;;;;;;;;;;;;;;;15.67;71.66;101181.81;5318508;32;45192;-73
2022/10/30 07:37:11;;;;;;;;;;;;;;;16.18;69.75;101179.37;5301030;32;34974;-73
2022/10/30 07:40:13;;;;;;;;;;;;;;;16.36;68.82;101188.16;5306263;32;35226;-73
2022/10/30 07:43:15;;;;;;;;;;;;;;;15.26;72.50;101198.75;5315733;32;34986;-72
2022/10/30 07:46:17;;;;;;;;;;;;;;;15.57;71.51;101191.09;5305244;32;35154;-64
2022/10/30 07:49:19;;;;;;;;;;;;;;;15.69;70.56;101201.16;5321484;32;34899;-73
2022/10/30 07:52:20;;;;;;;;;;;;;;;14.84;75.76;101197.09;5304967;32;35632;-64
2022/10/30 07:55:22;;;;;;;;;;;;;;;16.03;69.83;101199.53;5319622;32;34618;-64
2022/10/30 07:58:24;;;;;;;;;;;;;;;16.33;68.01;101193.66;5304865;33;35443;-65
2022/10/30 08:01:26;;;;;;;;;;;;;;;16.22;68.74;101205.63;5307909;32;34695;-74
2022/10/30 08:04:28;;;;;;;;;;;;;;;15.48;70.77;101202.13;5316480;32;34412;-74
2022/10/30 08:07:30;;;;;;;;;;;;;;;14.50;75.55;101203.84;5303312;32;34303;-64
2022/10/30 08:10:32;;;;;;;;;;;;;;;14.19;78.55;101212.16;5324702;32;34601;-73
2022/10/30 08:13:34;;;;;;;;;;;;;;;15.00;75.21;101200.78;5307342;32;35375;-64
2022/10/30 08:16:36;;;;;;;;;;;;;;;16.29;68.68;101197.38;5317870;33;34260;-64
2022/10/30 08:19:38;;;;;;;;;;;;;;;16.02;69.96;101196.94;5305068;32;35226;-64
2022/10/30 08:22:57;;;;;;;;;;;;;;;16.01;70.22;101201.41;5305712;32;45789;-65
2022/10/30 08:26:00;;;;;;;;;;;;;;;15.67;71.05;101197.72;5299797;32;34247;-65
2022/10/30 08:29:02;;;;;;;;;;;;;;;15.17;72.34;101210.63;5302984;32;34585;-73
2022/10/30 08:32:04;;;;;;;;;;;;;;;14.89;75.01;101206.56;5317505;32;34285;-64
2022/10/30 08:35:06;;;;;;;;;;;;;;;16.13;69.71;101195.50;5303527;33;35333;-74
2022/10/30 08:38:08;;;;;;;;;;;;;;;16.67;66.56;101196.28;5312008;32;35909;-64
2022/10/30 08:41:10;;;;;;;;;;;;;;;16.51;67.52;101206.00;5307345;32;44599;-72
2022/10/30 08:44:11;;;;;;;;;;;;;;;16.77;65.47;101199.37;5304583;32;36727;-64
2022/10/30 08:47:13;;;;;;;;;;;;;;;16.60;66.54;101205.50;5319069;32;35041;-73
2022/10/30 08:50:15;;;;;;;;;;;;;;;15.83;69.36;101199.63;5304508;32;34920;-74
2022/10/30 08:53:19;;;;;;;;;;;;;;;16.52;67.96;101197.09;5317784;32;34760;-64
2022/10/30 08:56:21;;;;;;;;;;;;;;;15.49;71.48;101200.34;5304071;32;34810;-74
2022/10/30 08:59:22;;;;;;;;;;;;;;;15.65;71.20;101193.44;5317378;32;35355;-65
2022/10/30 09:02:24;;;;;;;;;;;;;;;15.21;72.03;101193.69;5304676;32;35171;-71
2022/10/30 09:05:26;;;;;;;;;;;;;;;15.73;70.28;101190.41;5300786;33;34805;-64
2022/10/30 09:08:28;;;;;;;;;;;;;;;15.93;69.83;101192.97;5315739;32;35340;-70
2022/10/30 09:11:30;;;;;;;;;;;;;;;16.81;66.54;101200.06;5302849;32;34506;-73
2022/10/30 09:14:32;;;;;;;;;;;;;;;16.60;65.52;101200.19;5318016;32;35361;-64
2022/10/30 09:17:33;;;;;;;;;;;;;;;16.31;66.58;101193.72;5304122;32;33964;-74
2022/10/30 09:20:35;;;;;;;;;;;;;;;16.38;67.96;101189.84;5315971;32;35259;-65
2022/10/30 09:23:37;;;;;;;;;;;;;;;17.03;65.12;101190.91;5306814;32;37334;-64
2022/10/30 09:26:39;;;;;;;;;;;;;;;16.70;65.73;101193.53;5279540;33;43450;-72
2022/10/30 09:29:41;;;;;;;;;;;;;;;15.88;69.20;101201.12;5317732;32;35126;-73
2022/10/30 09:32:43;;;;;;;;;;;;;;;15.65;70.50;101198.75;5303964;32;34860;-75
2022/10/30 09:35:44;;;;;;;;;;;;;;;17.00;65.73;101185.75;5314230;33;35286;-72
2022/10/30 09:38:46;;;;;;;;;;;;;;;17.46;63.78;101190.38;5301354;32;34674;-74
2022/10/30 09:42:02;;;;;;;;;;;;;;;16.39;67.82;101188.03;5314819;32;35317;-73
2022/10/30 09:45:24;;;;;;;;;;;;;;;16.34;67.28;101190.06;5311608;32;35108;-73
2022/10/30 09:48:31;;;;;;;;;;;;;;;16.67;66.66;101188.31;5303173;32;34447;-73
2022/10/30 09:51:39;;;;;;;;;;;;;;;17.69;62.77;101187.28;5316551;32;34266;-63
2022/10/30 09:54:50;;;;;;;;;;;;;;;18.10;60.18;101182.31;5304722;32;44537;-64
2022/10/30 09:57:51;;;;;;;;;;;;;;;16.63;65.06;101184.12;5311500;32;34276;-64
2022/10/30 10:00:56;;;;;;;;;;;;;;;16.34;68.28;101172.34;5311769;32;35034;-74
2022/10/30 10:04:06;;;;;;;;;;;;;;;17.51;63.30;101167.03;5303629;33;34045;-74
2022/10/30 10:07:19;;;;;;;;;;;;;;;16.88;65.10;101172.28;5316001;33;34392;-64
2022/10/30 10:10:33;;;;;;;;;;;;;;;16.90;66.00;101170.38;5302401;33;35754;-64
2022/10/30 10:13:37;;;;;;;;;;;;;;;17.79;61.89;101172.56;5314862;32;34284;-66
2022/10/30 10:16:39;;;;;;;;;;;;;;;17.98;60.59;101167.06;5317123;32;37796;-73
2022/10/30 10:19:43;;;;;;;;;;;;;;;17.07;62.93;101157.06;5288673;33;35405;-65
2022/10/30 10:22:49;;;;;;;;;;;;;;;16.91;64.73;101161.47;5316466;32;35207;-64
2022/10/30 10:25:54;;;;;;;;;;;;;;;17.28;62.79;101160.34;5289397;32;35566;-65
2022/10/30 10:29:09;;;;;;;;;;;;;;;16.67;65.21;101156.47;5320903;32;35008;-65
2022/10/30 10:32:27;;;;;;;;;;;;;;;17.67;62.19;101162.59;5302644;32;45051;-73
2022/10/30 10:35:28;;;;;;;;;;;;;;;16.53;66.25;101159.00;5301990;32;34819;-64
2022/10/30 10:38:49;;;;;;;;;;;;;;;16.56;67.14;101160.66;5314858;32;34575;-64
2022/10/30 10:41:50;;;;;;;;;;;;;;;17.78;61.74;101152.25;5305324;32;35582;-65
2022/10/30 10:44:57;;;;;;;;;;;;;;;18.20;59.96;101152.50;5319606;32;35828;-64
2022/10/30 10:48:16;;;;;;;;;;;;;;;18.20;59.96;101150.69;5306068;32;34612;-65
2022/10/30 10:51:19;;;;;;;;;;;;;;;18.53;58.43;101154.97;5300294;32;44941;-71
2022/10/30 10:54:31;;;;;;;;;;;;;;;18.44;58.83;101144.88;5320462;32;35512;-64
2022/10/30 10:57:34;;;;;;;;;;;;;;;18.48;58.55;101143.72;5291448;32;34101;-64
2022/10/30 11:00:36;;;;;;;;;;;;;;;18.30;59.04;101141.25;5320008;32;34204;-64
2022/10/30 11:03:46;;;;;;;;;;;;;;;18.15;59.10;101131.47;5304248;32;34426;-73
2022/10/30 11:06:49;;;;;;;;;;;;;;;15.92;67.43;101133.78;5320447;32;45193;-74
2022/10/30 11:09:53;;;;;;;;;;;;;;;16.53;65.65;101129.81;5312105;32;35416;-74
2022/10/30 11:12:55;;;;;;;;;;;;;;;17.67;62.13;101138.69;5302791;33;35380;-65
2022/10/30 11:16:16;;;;;;;;;;;;;;;18.06;59.84;101122.25;5304323;32;34158;-73
2022/10/30 11:19:18;;;;;;;;;;;;;;;17.42;62.01;101128.56;5308855;32;46148;-74
2022/10/30 11:22:27;;;;;;;;;;;;;;;16.73;65.34;101127.00;5314801;32;36755;-64
2022/10/30 11:25:33;;;;;;;;;;;;;;;17.65;62.15;101127.28;5291520;32;35068;-64
2022/10/30 11:28:37;;;;;;;;;;;;;;;17.14;62.57;101123.06;5295916;33;34526;-72
2022/10/30 11:31:40;;;;;;;;;;;;;;;17.67;61.93;101121.87;5327671;32;44641;-65
2022/10/30 11:34:42;;;;;;;;;;;;;;;17.69;61.58;101130.59;5302142;33;34415;-73
2022/10/30 11:37:44;;;;;;;;;;;;;;;18.50;58.50;101118.75;5313287;32;35106;-74
2022/10/30 11:40:47;;;;;;;;;;;;;;;18.88;57.28;101113.78;5301676;32;34821;-74
2022/10/30 11:43:48;;;;;;;;;;;;;;;18.04;59.36;101121.50;5319821;32;35278;-75
2022/10/30 11:46:50;;;;;;;;;;;;;;;17.60;62.42;101116.03;5310620;32;35011;-65
2022/10/30 11:49:53;;;;;;;;;;;;;;;18.20;59.72;101113.44;5304440;32;34731;-64
2022/10/30 11:52:55;;;;;;;;;;;;;;;18.46;58.91;101101.25;5318535;32;34374;-65
2022/10/30 11:55:57;;;;;;;;;;;;;;;17.82;61.71;101108.56;5303877;33;34275;-65
2022/10/30 11:59:00;;;;;;;;;;;;;;;18.09;61.19;101099.91;5319754;32;35474;-73
2022/10/30 12:02:02;;;;;;;;;;;;;;;17.75;61.70;101096.59;5302035;32;34122;-65
2022/10/30 12:05:22;;;;;;;;;;;;;;;17.23;64.38;101098.66;5310255;32;35367;-64
2022/10/30 12:08:24;;;;;;;;;;;;;;;19.08;57.33;101088.53;5316533;32;34913;-65
2022/10/30 12:11:29;;;;;;;;;;;;;;;18.43;59.18;101096.12;5316626;32;35475;-65
2022/10/30 12:14:33;;;;;;;;;;;;;;;18.12;60.54;101103.28;5319171;32;34411;-73
2022/10/30 12:17:36;;;;;;;;;;;;;;;18.17;60.77;101095.03;5305423;32;34287;-65
2022/10/30 12:20:38;;;;;;;;;;;;;;;18.71;58.76;101091.78;5316782;33;34776;-74
2022/10/30 12:23:40;;;;;;;;;;;;;;;18.08;60.86;101103.53;5305694;33;44792;-65
2022/10/30 12:26:44;;;;;;;;;;;;;;;18.90;58.15;101097.69;5266616;32;35614;-73
2022/10/30 12:29:52;;;;;;;;;;;;;;;18.03;60.25;101093.19;5318767;32;34843;-74
2022/10/30 12:33:17;;;;;;;;;;;;;;;19.10;57.25;101067.97;5303690;32;44635;-65
2022/10/30 12:36:19;;;;;;;;;;;;;;;18.99;57.54;101065.13;5312851;32;35028;-64
2022/10/30 12:39:34;;;;;;;;;;;;;;;17.05;63.24;101076.59;5301830;32;35041;-76
2022/10/30 12:42:36;;;;;;;;;;;;;;;17.70;62.37;101085.31;5288493;32;35049;-65
2022/10/30 12:45:43;;;;;;;;;;;;;;;17.29;63.14;101099.16;5316687;32;34322;-74
2022/10/30 12:48:52;;;;;;;;;;;;;;;18.32;59.98;101098.56;5288569;33;45932;-74
2022/10/30 12:52:05;;;;;;;;;;;;;;;19.25;56.98;101097.25;5327284;32;34739;-74
2022/10/30 12:55:13;;;;;;;;;;;;;;;18.88;57.56;101088.94;5303065;32;34809;-74
2022/10/30 12:58:14;;;;;;;;;;;;;;;18.05;61.04;101096.59;5308192;32;48059;-64
2022/10/30 13:01:23;;;;;;;;;;;;;;;17.35;63.13;101092.66;5312772;32;35317;-65
2022/10/30 13:04:30;;;;;;;;;;;;;;;17.17;64.21;101098.97;5305768;32;35646;-65
2022/10/30 13:07:37;;;;;;;;;;;;;;;16.99;64.77;101095.53;5314100;32;35458;-65
2022/10/30 13:10:41;;;;;;;;;;;;;;;17.30;64.72;101086.72;5303774;32;44702;-65
2022/10/30 13:13:45;;;;;;;;;;;;;;;17.54;63.33;101077.37;5316461;32;34797;-65
2022/10/30 13:16:46;;;;;;;;;;;;;;;17.84;61.95;101079.25;5313898;32;35565;-64
2022/10/30 13:19:49;;;;;;;;;;;;;;;17.91;62.71;101085.94;5302737;32;34845;-65
2022/10/30 13:23:03;;;;;;;;;;;;;;;19.15;57.83;101073.03;5317460;32;34799;-70
2022/10/30 13:26:17;;;;;;;;;;;;;;;19.15;57.72;101073.87;5283142;32;34330;-64
2022/10/30 13:29:18;;;;;;;;;;;;;;;18.86;58.45;101074.84;5317833;32;44889;-64
2022/10/30 13:32:36;;;;;;;;;;;;;;;18.35;60.45;101071.75;5304439;32;36192;-64
2022/10/30 13:36:07;;;;;;;;;;;;;;;18.23;61.30;101086.69;5298225;33;36124;-73
2022/10/30 13:39:18;;;;;;;;;;;;;;;17.13;64.78;101090.34;5299115;32;34886;-74
2022/10/30 13:42:34;;;;;;;;;;;;;;;17.47;64.08;101086.66;5302693;32;35157;-64
2022/10/30 13:45:55;;;;;;;;;;;;;;;17.75;62.93;101095.72;5312231;33;34149;-74
2022/10/30 13:48:57;;;;;;;;;;;;;;;17.83;63.36;101081.03;5312832;32;37364;-72
2022/10/30 13:51:59;;;;;;;;;;;;;;;17.71;64.08;101080.84;5302838;33;34319;-66
2022/10/30 13:55:16;;;;;;;;;;;;;;;18.24;61.36;101079.56;5317511;33;34362;-64
2022/10/30 13:58:18;;;;;;;;;;;;;;;18.72;59.91;101067.72;5278764;32;858107;-73
2022/10/30 14:01:20;;;;;;;;;;;;;;;16.89;66.40;101076.59;5315989;33;34951;-64
2022/10/30 14:04:31;;;;;;;;;;;;;;;18.06;62.52;101073.53;5303864;32;36265;-70
2022/10/30 14:07:32;;;;;;;;;;;;;;;18.84;59.26;101061.63;5302897;32;34410;-63
2022/10/30 14:10:47;;;;;;;;;;;;;;;18.78;59.25;101062.03;5317132;32;34108;-73
2022/10/30 14:13:55;;;;;;;;;;;;;;;17.97;62.02;101080.25;5302471;32;35761;-64
2022/10/30 14:17:10;;;;;;;;;;;;;;;18.28;61.21;101081.91;5314915;32;34217;-73
2022/10/30 14:20:11;;;;;;;;;;;;;;;17.58;63.89;101088.69;5298199;33;44408;-64
2022/10/30 14:23:15;;;;;;;;;;;;;;;17.23;66.27;101093.34;5303313;32;34685;-73
2022/10/30 14:26:18;;;;;;;;;;;;;;;17.65;64.40;101091.88;5290171;33;34970;-74
2022/10/30 14:29:32;;;;;;;;;;;;;;;17.52;64.85;101091.72;5302143;33;35988;-74
2022/10/30 14:32:39;;;;;;;;;;;;;;;17.72;63.65;101102.09;5316013;33;34198;-73
2022/10/30 14:35:41;;;;;;;;;;;;;;;17.17;66.38;101097.19;5284946;33;45087;-73
2022/10/30 14:38:50;;;;;;;;;;;;;;;17.50;64.74;101093.56;5308816;33;34796;-75
2022/10/30 14:42:25;;;;;;;;;;;;;;;18.10;62.36;101085.69;5305743;33;35029;-74
2022/10/30 14:45:50;;;;;;;;;;;;;;;18.49;60.55;101070.94;5280832;33;35023;-64
2022/10/30 14:48:56;;;;;;;;;;;;;;;16.98;65.43;101075.22;5296439;33;34929;-74
2022/10/30 14:52:13;;;;;;;;;;;;;;;18.06;62.14;101074.37;5302785;33;34729;-73
2022/10/30 14:55:22;;;;;;;;;;;;;;;17.32;65.52;101061.81;5302573;33;44815;-70
2022/10/30 14:58:25;;;;;;;;;;;;;;;17.17;65.91;101067.09;5316082;32;34376;-73
2022/10/30 15:01:31;;;;;;;;;;;;;;;17.02;66.65;101066.16;5289685;32;34323;-65
2022/10/30 15:04:37;;;;;;;;;;;;;;;17.24;65.74;101063.16;5318046;32;34270;-64
2022/10/30 15:07:43;;;;;;;;;;;;;;;17.27;65.79;101063.00;5303346;32;36419;-64
2022/10/30 15:11:08;;;;;;;;;;;;;;;16.91;66.23;101055.28;5307951;32;46962;-74
2022/10/30 15:14:32;;;;;;;;;;;;;;;17.70;64.22;101060.53;5299686;32;44715;-74
2022/10/30 15:17:54;;;;;;;;;;;;;;;17.74;63.51;101052.34;5289905;33;34957;-64
2022/10/30 15:20:57;;;;;;;;;;;;;;;17.52;64.44;101051.84;5317234;32;34624;-74
2022/10/30 15:23:59;;;;;;;;;;;;;;;17.45;64.60;101054.00;5304111;32;34483;-73
2022/10/30 15:27:02;;;;;;;;;;;;;;;17.41;64.78;101054.25;5281446;32;34507;-63
2022/10/30 15:30:04;;;;;;;;;;;;;;;17.35;65.11;101059.91;5317600;32;34164;-74
2022/10/30 15:33:16;;;;;;;;;;;;;;;17.09;66.35;101056.06;5305329;32;34320;-73
2022/10/30 15:36:29;;;;;;;;;;;;;;;15.41;73.23;101068.25;5310430;33;45598;-73
2022/10/30 15:39:31;;;;;;;;;;;;;;;16.49;69.96;101075.19;5301990;32;34852;-65
2022/10/30 15:42:32;;;;;;;;;;;;;;;16.70;69.00;101062.62;5309610;32;34345;-65
2022/10/30 15:45:35;;;;;;;;;;;;;;;16.62;68.79;101062.16;5315465;32;34568;-65
2022/10/30 15:48:38;;;;;;;;;;;;;;;16.65;68.79;101069.94;5306227;32;36594;-74